Time;durP1;ratioP1;P1;durP2;ratioP2;P2;SDS_P1;SDS_P2;PMS_P1;PMS_P2;Temp;Humidity;BMP_temperature;BMP_pressure;BME280_temperature;BME280_humidity;BME280_pressure;Samples;Min_cycle;Max_cycle;Signal;HPM_P1;HPM_P2
2023/05/10 00:00:55;;;;;;;;;;;19.40;70.40;;;;;;10420931;27;89534;-64
2023/05/10 00:05:57;;;;;;;;;;;19.40;70.40;;;;;;10421969;28;89879;-64
2023/05/10 00:10:58;;;;;;;;;;;19.40;70.40;;;;;;10422916;28;90059;-64
2023/05/10 00:16:00;;;;;;;;;;;19.40;70.40;;;;;;10422695;28;88122;-64
2023/05/10 00:21:02;;;;;;;;;;;19.30;70.30;;;;;;10423588;28;88819;-64
2023/05/10 00:26:04;;;;;;;;;;;19.40;70.50;;;;;;10421162;28;89039;-64
2023/05/10 00:31:06;;;;;;;;;;;19.30;70.30;;;;;;10403806;28;89405;-64
2023/05/10 00:36:08;;;;;;;;;;;19.30;70.30;;;;;;10421282;28;90335;-64
2023/05/10 00:41:09;;;;;;;;;;;19.30;70.30;;;;;;10421848;28;89015;-64
2023/05/10 00:46:11;;;;;;;;;;;19.30;70.30;;;;;;10421526;28;88431;-64
2023/05/10 00:51:13;;;;;;;;;;;19.30;70.30;;;;;;10421358;28;89178;-64
2023/05/10 00:56:15;;;;;;;;;;;19.30;70.30;;;;;;10422468;28;88995;-65
2023/05/10 01:01:17;;;;;;;;;;;19.30;70.30;;;;;;10420936;28;88928;-64
2023/05/10 01:06:18;;;;;;;;;;;19.30;70.20;;;;;;10421545;28;89525;-64
2023/05/10 01:11:21;;;;;;;;;;;19.30;70.30;;;;;;10421459;28;88642;-64
2023/05/10 01:16:23;;;;;;;;;;;19.30;70.20;;;;;;10403273;28;89232;-64
2023/05/10 01:21:49;;;;;;;;;;;19.30;70.20;;;;;;10421825;28;91277;-64
2023/05/10 01:27:09;;;;;;;;;;;19.30;70.20;;;;;;10419412;28;89990;-64
2023/05/10 01:32:16;;;;;;;;;;;19.30;70.10;;;;;;10420468;28;89171;-64
2023/05/10 01:37:21;;;;;;;;;;;19.30;70.10;;;;;;10419358;28;88682;-65
2023/05/10 01:42:24;;;;;;;;;;;19.30;70.10;;;;;;10420183;28;88905;-64
2023/05/10 01:47:30;;;;;;;;;;;19.30;70.10;;;;;;10418756;28;88312;-64
2023/05/10 01:52:37;;;;;;;;;;;19.30;70.00;;;;;;10419269;28;89159;-64
2023/05/10 01:57:40;;;;;;;;;;;19.30;70.00;;;;;;10418846;28;89011;-64
2023/05/10 02:02:45;;;;;;;;;;;19.40;70.00;;;;;;10420704;28;89305;-65
2023/05/10 02:07:47;;;;;;;;;;;19.30;70.00;;;;;;10401796;28;88577;-65
2023/05/10 02:12:50;;;;;;;;;;;19.40;69.90;;;;;;10418713;28;90136;-64
2023/05/10 02:17:54;;;;;;;;;;;19.40;69.90;;;;;;10418083;28;91174;-64
2023/05/10 02:22:56;;;;;;;;;;;19.30;69.80;;;;;;10418071;27;88334;-64
2023/05/10 02:27:59;;;;;;;;;;;19.40;69.80;;;;;;10418395;28;90052;-64
2023/05/10 02:33:03;;;;;;;;;;;19.40;69.80;;;;;;10417854;28;88836;-64
2023/05/10 02:38:05;;;;;;;;;;;19.40;69.70;;;;;;10418090;28;90108;-64
2023/05/10 02:43:09;;;;;;;;;;;19.40;69.70;;;;;;10418617;28;89942;-64
2023/05/10 02:48:10;;;;;;;;;;;19.30;69.60;;;;;;10417138;28;89929;-64
2023/05/10 02:53:18;;;;;;;;;;;19.40;69.60;;;;;;10418627;28;88387;-64
2023/05/10 02:58:21;;;;;;;;;;;19.30;69.60;;;;;;10416360;28;90065;-64
2023/05/10 03:03:23;;;;;;;;;;;19.30;69.50;;;;;;10417546;28;89538;-64
2023/05/10 03:08:24;;;;;;;;;;;19.40;69.60;;;;;;10415766;28;88915;-64
2023/05/10 03:13:35;;;;;;;;;;;19.40;69.50;;;;;;10398287;28;88571;-64
2023/05/10 03:18:43;;;;;;;;;;;19.30;69.40;;;;;;10399328;28;89543;-64
2023/05/10 03:23:54;;;;;;;;;;;19.40;69.50;;;;;;10417129;28;89779;-64
2023/05/10 03:28:58;;;;;;;;;;;19.40;69.40;;;;;;10417856;28;88671;-64
2023/05/10 03:34:01;;;;;;;;;;;19.40;69.40;;;;;;10416136;28;91445;-63
2023/05/10 03:39:03;;;;;;;;;;;19.30;69.40;;;;;;10398468;28;90108;-63
2023/05/10 03:44:04;;;;;;;;;;;19.40;69.50;;;;;;10417058;28;89421;-64
2023/05/10 05:07:14;;;;;;;;;;;19.10;69.40;;;;;;10547449;27;89775;-63
2023/05/10 05:12:16;;;;;;;;;;;19.10;69.40;;;;;;10549088;27;89024;-63
2023/05/10 05:17:18;;;;;;;;;;;19.10;69.40;;;;;;10548699;27;89445;-64
2023/05/10 05:22:26;;;;;;;;;;;19.10;69.40;;;;;;10549226;27;87973;-64
2023/05/10 05:27:28;;;;;;;;;;;19.10;69.40;;;;;;10548882;27;90171;-63
2023/05/10 05:32:30;;;;;;;;;;;19.10;69.40;;;;;;10548020;27;89830;-63
2023/05/10 05:37:32;;;;;;;;;;;19.10;69.40;;;;;;10547496;27;90015;-63
2023/05/10 05:42:34;;;;;;;;;;;19.10;69.40;;;;;;10529843;27;88811;-63
2023/05/10 05:47:36;;;;;;;;;;;19.10;70.20;;;;;;10544256;27;89334;-63
2023/05/10 05:52:37;;;;;;;;;;;19.10;70.00;;;;;;10546514;27;89098;-63
2023/05/10 05:57:39;;;;;;;;;;;19.10;70.00;;;;;;10546794;27;90071;-63
2023/05/10 06:02:41;;;;;;;;;;;19.00;69.80;;;;;;10545975;27;89018;-63
2023/05/10 06:07:43;;;;;;;;;;;19.00;69.90;;;;;;10545723;27;89065;-64
2023/05/10 06:12:44;;;;;;;;;;;19.00;69.90;;;;;;10546393;27;90014;-63
2023/05/10 06:17:48;;;;;;;;;;;19.00;69.90;;;;;;10545914;27;90167;-63
2023/05/10 06:22:50;;;;;;;;;;;19.00;69.80;;;;;;10546079;27;90447;-63
2023/05/10 06:27:56;;;;;;;;;;;19.00;69.80;;;;;;10545882;27;90103;-63
2023/05/10 06:32:58;;;;;;;;;;;19.00;69.90;;;;;;10546920;27;88322;-64
2023/05/10 06:38:00;;;;;;;;;;;19.00;69.90;;;;;;10544965;27;89054;-63
2023/05/10 06:43:02;;;;;;;;;;;19.00;69.90;;;;;;10545696;27;88990;-63
2023/05/10 06:48:04;;;;;;;;;;;19.00;69.90;;;;;;10544217;27;89797;-63
2023/05/10 06:53:06;;;;;;;;;;;19.00;70.00;;;;;;10545381;27;89982;-63
2023/05/10 06:58:07;;;;;;;;;;;19.00;70.00;;;;;;10544930;27;89168;-63
2023/05/10 07:03:09;;;;;;;;;;;19.00;69.90;;;;;;10545635;27;90008;-63
2023/05/10 07:08:11;;;;;;;;;;;19.00;70.00;;;;;;10543186;27;89224;-63
2023/05/10 07:13:13;;;;;;;;;;;19.00;70.00;;;;;;10544626;27;88909;-63
2023/05/10 07:18:15;;;;;;;;;;;19.00;70.00;;;;;;10544325;27;90216;-63
2023/05/10 07:23:19;;;;;;;;;;;19.00;69.90;;;;;;10544829;27;88139;-63
2023/05/10 07:28:21;;;;;;;;;;;19.10;69.90;;;;;;10544203;27;88238;-63
2023/05/10 07:33:23;;;;;;;;;;;19.10;69.90;;;;;;10543955;27;88910;-63
2023/05/10 07:38:24;;;;;;;;;;;19.10;69.90;;;;;;10543807;27;89672;-63
2023/05/10 07:43:26;;;;;;;;;;;19.10;69.90;;;;;;10542724;27;89425;-63
2023/05/10 07:48:28;;;;;;;;;;;19.10;69.90;;;;;;10543139;27;89770;-63
2023/05/10 07:53:30;;;;;;;;;;;19.10;69.80;;;;;;10544603;27;89040;-64
2023/05/10 07:58:31;;;;;;;;;;;19.10;69.80;;;;;;10544004;27;90042;-63
2023/05/10 08:03:34;;;;;;;;;;;19.10;69.80;;;;;;10542508;27;89881;-62
2023/05/10 08:08:35;;;;;;;;;;;19.10;69.80;;;;;;10544115;27;90088;-63
2023/05/10 08:13:37;;;;;;;;;;;19.10;69.80;;;;;;10543498;27;87419;-63
2023/05/10 08:18:39;;;;;;;;;;;19.20;69.80;;;;;;10541918;27;88270;-63
2023/05/10 08:23:43;;;;;;;;;;;19.20;69.70;;;;;;10547548;27;90172;-63
2023/05/10 08:28:45;;;;;;;;;;;19.20;69.70;;;;;;10549065;27;90847;-63
2023/05/10 08:33:46;;;;;;;;;;;19.20;69.70;;;;;;10531033;27;88951;-63
2023/05/10 08:38:54;;;;;;;;;;;19.20;69.60;;;;;;10551136;27;90050;-63
2023/05/10 08:43:56;;;;;;;;;;;19.20;69.70;;;;;;10530959;27;90363;-64
2023/05/10 08:49:00;;;;;;;;;;;19.20;69.60;;;;;;10549108;27;90171;-63
2023/05/10 08:54:05;;;;;;;;;;;19.20;69.50;;;;;;10548547;27;90232;-63
2023/05/10 08:59:07;;;;;;;;;;;19.20;69.50;;;;;;10548200;27;88841;-63
2023/05/10 09:04:09;;;;;;;;;;;19.20;69.50;;;;;;10550226;27;89227;-63
2023/05/10 09:09:11;;;;;;;;;;;19.20;69.50;;;;;;10548438;27;90165;-63
2023/05/10 09:14:12;;;;;;;;;;;19.20;69.50;;;;;;10548510;27;89806;-63
2023/05/10 09:19:14;;;;;;;;;;;19.20;69.40;;;;;;10546944;27;89891;-63
2023/05/10 09:24:16;;;;;;;;;;;19.20;69.20;;;;;;10548058;27;89117;-63
2023/05/10 09:29:18;;;;;;;;;;;19.30;69.30;;;;;;10529070;27;89852;-64
2023/05/10 09:34:29;;;;;;;;;;;19.30;69.20;;;;;;10546911;27;89756;-63
2023/05/10 09:39:31;;;;;;;;;;;19.30;69.30;;;;;;10546638;27;88907;-63
2023/05/10 09:44:33;;;;;;;;;;;19.30;69.40;;;;;;10528431;27;90152;-63
2023/05/10 09:49:35;;;;;;;;;;;19.30;69.40;;;;;;10528186;27;90130;-63
2023/05/10 09:54:37;;;;;;;;;;;19.30;69.40;;;;;;10548611;27;88096;-63
2023/05/10 09:59:42;;;;;;;;;;;19.30;69.40;;;;;;10528677;27;89010;-63
2023/05/10 10:04:44;;;;;;;;;;;19.30;69.40;;;;;;10546861;27;88843;-63
2023/05/10 10:09:46;;;;;;;;;;;19.30;69.50;;;;;;10545269;27;89623;-63
2023/05/10 10:14:49;;;;;;;;;;;19.20;69.40;;;;;;10545070;27;88926;-63
2023/05/10 10:19:51;;;;;;;;;;;19.20;69.30;;;;;;10547092;27;89129;-63
2023/05/10 10:24:53;;;;;;;;;;;19.20;69.40;;;;;;10545515;27;89017;-63
2023/05/10 10:30:04;;;;;;;;;;;19.20;69.40;;;;;;10545532;27;88247;-63
2023/05/10 10:35:06;;;;;;;;;;;19.20;69.40;;;;;;10546051;27;88981;-63
2023/05/10 10:40:23;;;;;;;;;;;19.20;69.40;;;;;;10547654;27;89714;-63
2023/05/10 10:45:26;;;;;;;;;;;19.20;69.40;;;;;;10545930;27;88397;-63
2023/05/10 10:50:27;;;;;;;;;;;19.20;69.50;;;;;;10544424;27;89136;-63
2023/05/10 10:55:30;;;;;;;;;;;19.20;69.40;;;;;;10545124;27;88714;-63
2023/05/10 11:00:39;;;;;;;;;;;19.20;69.50;;;;;;10543860;27;89179;-63
2023/05/10 11:05:47;;;;;;;;;;;19.20;69.40;;;;;;10544736;27;88460;-63
2023/05/10 11:10:51;;;;;;;;;;;19.20;69.30;;;;;;10543874;27;89361;-63
2023/05/10 11:15:53;;;;;;;;;;;19.20;69.30;;;;;;10544456;27;89019;-63
2023/05/10 11:20:59;;;;;;;;;;;19.20;69.20;;;;;;10544392;27;90073;-63
2023/05/10 11:26:01;;;;;;;;;;;19.20;69.00;;;;;;10543855;27;88226;-63
2023/05/10 11:31:03;;;;;;;;;;;19.20;69.00;;;;;;10544172;27;90376;-63
2023/05/10 11:36:05;;;;;;;;;;;19.20;69.10;;;;;;10525310;27;87893;-63
2023/05/10 11:41:08;;;;;;;;;;;19.20;69.10;;;;;;10544005;27;89839;-63
2023/05/10 11:46:11;;;;;;;;;;;19.20;69.10;;;;;;10544136;27;90105;-63
2023/05/10 11:51:12;;;;;;;;;;;19.20;69.10;;;;;;10542638;27;91260;-63
2023/05/10 11:56:14;;;;;;;;;;;19.20;69.10;;;;;;10546869;27;89859;-63
2023/05/10 12:01:16;;;;;;;;;;;19.20;69.10;;;;;;10551252;27;89072;-63
2023/05/10 12:06:18;;;;;;;;;;;19.20;69.10;;;;;;10551159;27;90495;-63
2023/05/10 12:11:24;;;;;;;;;;;19.20;69.20;;;;;;10550480;27;89090;-63
2023/05/10 12:16:28;;;;;;;;;;;19.20;69.10;;;;;;10550823;27;89945;-63
2023/05/10 12:21:33;;;;;;;;;;;19.20;69.10;;;;;;10549549;27;89028;-63
2023/05/10 12:26:35;;;;;;;;;;;19.20;69.30;;;;;;10532569;27;89398;-63
2023/05/10 12:31:53;;;;;;;;;;;19.20;69.30;;;;;;10549771;27;90166;-63
2023/05/10 12:36:55;;;;;;;;;;;19.20;69.30;;;;;;10549808;27;89300;-63
2023/05/10 12:41:57;;;;;;;;;;;19.20;69.20;;;;;;10547774;27;89423;-63
2023/05/10 12:46:58;;;;;;;;;;;19.20;69.20;;;;;;10529687;27;88430;-63
2023/05/10 12:52:00;;;;;;;;;;;19.20;69.20;;;;;;10548324;27;90082;-63
2023/05/10 12:57:02;;;;;;;;;;;19.20;69.20;;;;;;10530828;27;91051;-63
2023/05/10 13:02:04;;;;;;;;;;;19.20;69.30;;;;;;10530660;27;88974;-63
2023/05/10 13:07:06;;;;;;;;;;;19.30;69.30;;;;;;10547157;27;89065;-62
2023/05/10 13:12:08;;;;;;;;;;;19.30;69.30;;;;;;10549551;27;89960;-63
2023/05/10 13:17:11;;;;;;;;;;;19.30;69.20;;;;;;10549139;27;89307;-63
2023/05/10 13:22:12;;;;;;;;;;;19.30;69.20;;;;;;10549867;27;89951;-63
2023/05/10 13:27:14;;;;;;;;;;;19.30;69.30;;;;;;10549198;27;90177;-63
2023/05/10 13:32:16;;;;;;;;;;;19.30;69.20;;;;;;10547010;27;89552;-63
2023/05/10 13:37:17;;;;;;;;;;;19.30;69.10;;;;;;10547362;27;90192;-63
2023/05/10 13:42:19;;;;;;;;;;;19.40;69.10;;;;;;10529270;27;88756;-63
2023/05/10 13:47:22;;;;;;;;;;;19.40;68.90;;;;;;10547620;27;90026;-63
2023/05/10 13:52:23;;;;;;;;;;;19.30;68.80;;;;;;10547177;27;90107;-63
2023/05/10 13:57:25;;;;;;;;;;;19.30;68.90;;;;;;10547297;27;88762;-63
2023/05/10 14:02:27;;;;;;;;;;;19.40;68.80;;;;;;10547038;27;89396;-63
2023/05/10 14:07:29;;;;;;;;;;;19.40;68.80;;;;;;10548185;27;89300;-63
2023/05/10 14:12:31;;;;;;;;;;;19.40;68.80;;;;;;10546735;27;89990;-63
2023/05/10 14:17:33;;;;;;;;;;;19.40;68.80;;;;;;10546272;27;90106;-63
2023/05/10 14:22:35;;;;;;;;;;;19.40;68.80;;;;;;10545601;27;89798;-62
2023/05/10 14:27:36;;;;;;;;;;;19.40;68.80;;;;;;10546365;27;90442;-63
2023/05/10 14:32:38;;;;;;;;;;;19.50;68.80;;;;;;10526834;27;89188;-63
2023/05/10 14:37:40;;;;;;;;;;;19.50;68.80;;;;;;10545408;27;89767;-63
2023/05/10 14:42:42;;;;;;;;;;;19.50;68.80;;;;;;10545466;27;90302;-63
2023/05/10 14:47:43;;;;;;;;;;;19.50;68.90;;;;;;10543701;27;89148;-63
2023/05/10 14:52:45;;;;;;;;;;;19.50;68.80;;;;;;10544658;27;89100;-63
2023/05/10 14:57:49;;;;;;;;;;;19.50;68.70;;;;;;10545569;27;88357;-63
2023/05/10 15:02:50;;;;;;;;;;;19.50;68.70;;;;;;10544871;27;88058;-63
2023/05/10 15:07:53;;;;;;;;;;;19.50;68.60;;;;;;10544598;27;88322;-63
2023/05/10 15:12:55;;;;;;;;;;;19.50;68.60;;;;;;10543240;27;88832;-63
2023/05/10 15:17:56;;;;;;;;;;;19.60;68.60;;;;;;10544448;27;88889;-63
2023/05/10 15:22:58;;;;;;;;;;;19.50;68.50;;;;;;10544741;27;90544;-63
2023/05/10 15:28:01;;;;;;;;;;;19.60;68.60;;;;;;10544100;27;88192;-63
2023/05/10 15:33:03;;;;;;;;;;;19.60;68.60;;;;;;10543963;27;89555;-63
2023/05/10 15:38:05;;;;;;;;;;;19.60;68.50;;;;;;10529010;27;90313;-60
2023/05/10 15:43:07;;;;;;;;;;;19.60;68.40;;;;;;10562963;27;90337;-62
2023/05/10 15:48:08;;;;;;;;;;;19.60;68.80;;;;;;10584428;27;88898;-61
2023/05/10 15:53:10;;;;;;;;;;;19.70;68.70;;;;;;10564864;27;88610;-62
2023/05/10 15:58:12;;;;;;;;;;;19.70;68.70;;;;;;10576654;27;88908;-64
2023/05/10 16:03:13;;;;;;;;;;;19.70;69.00;;;;;;10495952;27;90877;-61
2023/05/10 16:08:15;;;;;;;;;;;19.80;71.40;;;;;;10495251;27;88981;-60
2023/05/10 16:13:17;;;;;;;;;;;19.90;73.30;;;;;;10495893;27;88834;-60
2023/05/10 16:18:18;;;;;;;;;;;20.00;73.20;;;;;;10499530;27;89986;-63
2023/05/10 16:23:20;;;;;;;;;;;20.10;74.60;;;;;;10493957;27;89420;-61
2023/05/10 16:28:22;;;;;;;;;;;20.10;73.10;;;;;;10499739;27;90112;-64
2023/05/10 16:33:24;;;;;;;;;;;20.10;72.40;;;;;;10499076;27;88760;-63
2023/05/10 16:38:25;;;;;;;;;;;20.10;71.80;;;;;;10500370;27;89231;-63
2023/05/10 16:43:27;;;;;;;;;;;20.10;72.00;;;;;;10503691;27;90092;-62
2023/05/10 16:48:29;;;;;;;;;;;20.10;72.00;;;;;;10505405;27;88770;-63
2023/05/10 16:53:30;;;;;;;;;;;20.10;71.90;;;;;;10505333;27;89542;-63
2023/05/10 16:58:32;;;;;;;;;;;20.10;71.80;;;;;;10507504;27;90083;-62
2023/05/10 17:03:35;;;;;;;;;;;20.10;71.80;;;;;;10505831;27;88981;-61
2023/05/10 17:08:37;;;;;;;;;;;20.10;72.60;;;;;;10503932;27;88470;-62
2023/05/10 17:13:39;;;;;;;;;;;20.10;72.00;;;;;;10505420;27;89570;-63
2023/05/10 17:18:41;;;;;;;;;;;20.00;72.20;;;;;;10503754;27;89193;-63
2023/05/10 17:23:43;;;;;;;;;;;20.00;72.50;;;;;;10505195;27;90066;-63
2023/05/10 17:28:44;;;;;;;;;;;19.90;72.60;;;;;;10505165;27;87656;-62
2023/05/10 17:33:46;;;;;;;;;;;19.90;72.70;;;;;;10505141;27;89109;-63
2023/05/10 17:38:48;;;;;;;;;;;19.90;72.70;;;;;;10504308;27;89943;-63
2023/05/10 17:43:50;;;;;;;;;;;19.90;72.80;;;;;;10503929;27;90419;-64
2023/05/10 17:48:51;;;;;;;;;;;19.90;72.90;;;;;;10503270;27;89514;-64
2023/05/10 17:53:53;;;;;;;;;;;20.00;72.70;;;;;;10503433;27;89957;-63
2023/05/10 17:58:55;;;;;;;;;;;20.00;72.60;;;;;;10504123;27;88924;-63
2023/05/10 18:03:56;;;;;;;;;;;20.00;72.30;;;;;;10503760;27;90161;-63
2023/05/10 18:08:58;;;;;;;;;;;19.90;72.10;;;;;;10503461;27;88836;-63
2023/05/10 18:14:00;;;;;;;;;;;19.90;72.30;;;;;;10503221;27;88430;-63
2023/05/10 18:19:02;;;;;;;;;;;19.80;72.40;;;;;;10504806;27;88077;-63
2023/05/10 18:24:04;;;;;;;;;;;19.80;72.30;;;;;;10503787;27;88948;-62
2023/05/10 18:29:06;;;;;;;;;;;19.90;72.30;;;;;;10503245;27;89202;-63
2023/05/10 18:34:08;;;;;;;;;;;19.80;72.20;;;;;;10502007;27;90231;-63
2023/05/10 18:39:10;;;;;;;;;;;19.80;72.20;;;;;;10514177;27;89874;-63
2023/05/10 18:44:12;;;;;;;;;;;19.70;72.00;;;;;;10543217;27;89089;-63
2023/05/10 18:49:13;;;;;;;;;;;19.70;71.90;;;;;;10544606;27;89019;-64
2023/05/10 18:54:15;;;;;;;;;;;19.70;71.90;;;;;;10544837;27;89176;-64
2023/05/10 18:59:17;;;;;;;;;;;19.70;71.90;;;;;;10544498;27;89784;-64
2023/05/10 19:04:19;;;;;;;;;;;19.70;71.80;;;;;;10543388;27;89017;-64
2023/05/10 19:09:20;;;;;;;;;;;19.70;71.70;;;;;;10544832;27;88363;-64
2023/05/10 19:14:24;;;;;;;;;;;19.70;71.60;;;;;;10544427;27;90350;-64
2023/05/10 19:19:26;;;;;;;;;;;19.70;71.70;;;;;;10544391;27;89053;-64
2023/05/10 19:24:28;;;;;;;;;;;19.70;71.50;;;;;;10542417;27;89113;-65
2023/05/10 19:29:31;;;;;;;;;;;19.70;71.60;;;;;;10533727;27;109352;-65
2023/05/10 19:34:33;;;;;;;;;;;19.70;71.60;;;;;;10543280;27;89868;-65
2023/05/10 19:39:35;;;;;;;;;;;19.70;71.60;;;;;;10524918;27;90052;-65
2023/05/10 19:44:37;;;;;;;;;;;19.70;71.60;;;;;;10543806;27;88841;-65
2023/05/10 19:49:39;;;;;;;;;;;19.70;71.60;;;;;;10540946;27;88953;-65
2023/05/10 19:54:42;;;;;;;;;;;19.70;71.60;;;;;;10542498;27;89487;-65
2023/05/10 19:59:44;;;;;;;;;;;19.70;71.60;;;;;;10544358;27;88472;-65
2023/05/10 20:04:46;;;;;;;;;;;19.70;71.60;;;;;;10523665;27;90057;-65
2023/05/10 20:09:47;;;;;;;;;;;19.70;71.60;;;;;;10524481;27;89042;-64
2023/05/10 20:14:49;;;;;;;;;;;19.70;71.50;;;;;;10540929;27;89562;-65
2023/05/10 20:19:50;;;;;;;;;;;19.70;71.60;;;;;;10549684;27;88810;-65
2023/05/10 20:24:52;;;;;;;;;;;19.70;71.50;;;;;;10549846;27;88934;-65
2023/05/10 20:29:56;;;;;;;;;;;19.70;71.50;;;;;;10548865;27;89113;-65
2023/05/10 20:34:58;;;;;;;;;;;19.80;71.40;;;;;;10550600;27;89826;-65
2023/05/10 20:40:00;;;;;;;;;;;19.70;71.40;;;;;;10548587;27;89435;-65
2023/05/10 20:45:02;;;;;;;;;;;19.70;72.20;;;;;;10549238;27;88976;-65
2023/05/10 20:50:04;;;;;;;;;;;19.70;71.20;;;;;;10530381;27;87897;-65
2023/05/10 20:55:06;;;;;;;;;;;19.70;71.00;;;;;;10548228;27;89428;-65
2023/05/10 21:00:08;;;;;;;;;;;19.70;70.90;;;;;;10549743;27;90140;-64
2023/05/10 21:05:10;;;;;;;;;;;19.70;70.80;;;;;;10528904;27;90231;-64
2023/05/10 21:10:12;;;;;;;;;;;19.70;70.70;;;;;;10529249;27;88647;-65
2023/05/10 21:15:13;;;;;;;;;;;19.70;70.60;;;;;;10530422;27;90042;-65
2023/05/10 21:20:15;;;;;;;;;;;19.60;70.50;;;;;;10547420;27;88854;-65
2023/05/10 21:25:17;;;;;;;;;;;19.60;70.50;;;;;;10548874;27;88272;-65
2023/05/10 21:30:19;;;;;;;;;;;19.60;70.50;;;;;;10548794;27;90050;-65
2023/05/10 21:35:21;;;;;;;;;;;19.60;70.50;;;;;;10550148;27;89878;-65
2023/05/10 21:40:23;;;;;;;;;;;19.60;70.50;;;;;;10549673;27;89493;-65
2023/05/10 21:45:24;;;;;;;;;;;19.60;70.50;;;;;;10528276;27;89010;-65
2023/05/10 21:50:26;;;;;;;;;;;19.60;70.40;;;;;;10528115;27;89286;-65
2023/05/10 21:55:27;;;;;;;;;;;19.50;70.30;;;;;;10546295;27;89660;-65
2023/05/10 22:00:29;;;;;;;;;;;19.50;70.30;;;;;;10546257;27;89098;-64
2023/05/10 22:05:34;;;;;;;;;;;19.50;70.30;;;;;;10546462;27;89672;-65
2023/05/10 22:10:36;;;;;;;;;;;19.50;70.30;;;;;;10546314;27;88828;-64
2023/05/10 22:15:38;;;;;;;;;;;19.50;70.20;;;;;;10527978;27;90035;-65
2023/05/10 22:20:39;;;;;;;;;;;19.40;70.20;;;;;;10545864;27;88964;-65
2023/05/10 22:25:41;;;;;;;;;;;19.40;70.20;;;;;;10545768;27;88308;-65
2023/05/10 22:30:43;;;;;;;;;;;19.50;70.30;;;;;;10545800;27;87805;-65
2023/05/10 22:35:45;;;;;;;;;;;19.40;70.20;;;;;;10545953;27;90066;-65
2023/05/10 22:40:47;;;;;;;;;;;19.40;70.10;;;;;;10543392;27;89353;-65
2023/05/10 22:45:48;;;;;;;;;;;19.40;70.10;;;;;;10524374;27;89169;-65
2023/05/10 22:50:50;;;;;;;;;;;19.40;70.10;;;;;;10544709;27;90147;-65
2023/05/10 22:55:52;;;;;;;;;;;19.40;70.10;;;;;;10526301;27;89925;-65
2023/05/10 23:00:54;;;;;;;;;;;19.40;70.10;;;;;;10524696;27;89349;-65
2023/05/10 23:05:55;;;;;;;;;;;19.30;70.10;;;;;;10544192;27;88642;-65
2023/05/10 23:10:57;;;;;;;;;;;19.40;70.10;;;;;;10543334;27;89518;-65
2023/05/10 23:16:04;;;;;;;;;;;19.40;70.00;;;;;;10545166;27;89916;-65
2023/05/10 23:21:05;;;;;;;;;;;19.40;70.10;;;;;;10527400;27;87403;-65
2023/05/10 23:26:07;;;;;;;;;;;19.30;70.00;;;;;;10543492;27;88822;-65
2023/05/10 23:31:09;;;;;;;;;;;19.30;71.00;;;;;;10544179;27;88097;-65
2023/05/10 23:36:11;;;;;;;;;;;19.30;70.00;;;;;;10525200;27;90798;-65
2023/05/10 23:41:12;;;;;;;;;;;19.30;70.10;;;;;;10543140;27;88516;-65
2023/05/10 23:46:14;;;;;;;;;;;19.30;70.10;;;;;;10544794;27;89663;-65
2023/05/10 23:51:16;;;;;;;;;;;19.20;70.00;;;;;;10545851;27;88483;-65
2023/05/10 23:56:18;;;;;;;;;;;19.20;70.00;;;;;;10550211;27;89049;-65
